createdAt,value
2019-03-04T00:00:03.040Z,5
2019-03-04T00:01:03.581Z,6.1
2019-03-04T00:02:03.110Z,5
2019-03-04T00:03:03.865Z,7.2
2019-03-04T00:04:03.333Z,6.1
2019-03-04T00:05:03.952Z,5
2019-03-04T00:06:03.793Z,6.1
2019-03-04T00:07:03.852Z,6.1
2019-03-04T00:08:03.660Z,5
2019-03-04T00:09:03.875Z,5
2019-03-04T00:10:03.676Z,5
2019-03-04T00:11:03.779Z,5
2019-03-04T00:12:02.964Z,3.6
2019-03-04T00:13:02.714Z,5
2019-03-04T00:14:03.517Z,5
2019-03-04T00:15:03.637Z,2.5
2019-03-04T00:16:03.517Z,2.5
2019-03-04T00:17:03.589Z,2.5
2019-03-04T00:18:03.257Z,3.6
2019-03-04T00:19:03.407Z,2.5
2019-03-04T00:20:03.541Z,3.6
2019-03-04T00:21:03.388Z,2.5
2019-03-04T00:22:03.441Z,1.1
2019-03-04T00:23:03.105Z,1.1
2019-03-04T00:24:03.167Z,2.5
2019-03-04T00:25:03.057Z,1.1
2019-03-04T00:26:03.455Z,2.5
2019-03-04T00:27:03.181Z,1.1
2019-03-04T00:28:03.303Z,2.5
2019-03-04T00:29:03.014Z,2.5
2019-03-04T00:30:03.313Z,1.1
2019-03-04T00:31:02.768Z,1.1
2019-03-04T00:32:03.025Z,1.1
2019-03-04T00:33:03.165Z,2.5
2019-03-04T00:34:03.201Z,2.5
2019-03-04T00:35:03.285Z,2.5
2019-03-04T00:36:03.896Z,3.6
2019-03-04T00:37:03.572Z,3.6
2019-03-04T00:38:03.047Z,3.6
2019-03-04T00:39:03.021Z,3.6
2019-03-04T00:40:02.931Z,2.5
2019-03-04T00:41:03.095Z,2.5
2019-03-04T00:42:03.016Z,1.1
2019-03-04T00:43:03.720Z,1.1
2019-03-04T00:44:03.862Z,2.5
2019-03-04T00:45:04.039Z,2.5
2019-03-04T00:46:03.599Z,2.5
2019-03-04T00:47:03.294Z,1.1
2019-03-04T00:48:03.899Z,2.5
2019-03-04T00:49:03.637Z,2.5
2019-03-04T00:50:04.049Z,5
2019-03-04T00:51:03.701Z,6.1
2019-03-04T00:52:03.186Z,5
2019-03-04T00:53:03.705Z,5
2019-03-04T00:54:03.675Z,3.6
2019-03-04T00:55:03.667Z,2.5
2019-03-04T00:56:03.353Z,3.6
2019-03-04T00:57:03.764Z,2.5
2019-03-04T00:58:03.584Z,0
2019-03-04T00:59:03.546Z,0
2019-03-04T01:00:03.217Z,2.5
2019-03-04T01:01:03.608Z,1.1
2019-03-04T01:02:03.079Z,1.1
2019-03-04T01:03:03.319Z,1.1
2019-03-04T01:04:03.241Z,1.1
2019-03-04T01:05:03.195Z,1.1
2019-03-04T01:06:03.838Z,1.1
2019-03-04T01:07:02.985Z,1.1
2019-03-04T01:08:03.263Z,1.1
2019-03-04T01:09:03.331Z,3.6
2019-03-04T01:10:03.350Z,3.6
2019-03-04T01:11:02.945Z,2.5
2019-03-04T01:12:03.440Z,3.6
2019-03-04T01:13:02.886Z,3.6
2019-03-04T01:14:03.069Z,2.5
2019-03-04T01:15:02.900Z,0
2019-03-04T01:16:02.685Z,1.1
2019-03-04T01:17:03.870Z,2.5
2019-03-04T01:18:03.171Z,2.5
2019-03-04T01:19:03.027Z,1.1
2019-03-04T01:20:04.150Z,2.5
2019-03-04T01:21:03.811Z,2.5
2019-03-04T01:22:02.929Z,2.5
2019-03-04T01:23:03.000Z,2.5
2019-03-04T01:24:03.777Z,2.5
2019-03-04T01:25:03.114Z,2.5
2019-03-04T01:26:03.820Z,3.6
2019-03-04T01:27:03.727Z,3.6
2019-03-04T01:28:03.781Z,2.5
2019-03-04T01:29:03.869Z,2.5
2019-03-04T01:30:03.755Z,2.5
2019-03-04T01:31:03.608Z,5
2019-03-04T01:32:03.546Z,3.6
2019-03-04T01:33:03.200Z,5
2019-03-04T01:34:03.166Z,2.5
2019-03-04T01:35:03.496Z,3.6
2019-03-04T01:36:03.872Z,0
2019-03-04T01:37:03.401Z,2.5
2019-03-04T01:38:03.812Z,5
2019-03-04T01:39:03.786Z,5
2019-03-04T01:40:03.083Z,2.5
2019-03-04T01:41:03.572Z,2.5
2019-03-04T01:42:03.045Z,2.5
2019-03-04T01:43:03.682Z,0
2019-03-04T01:44:03.717Z,2.5
2019-03-04T01:45:03.797Z,2.5
2019-03-04T01:46:03.538Z,3.6
2019-03-04T01:47:03.812Z,2.5
2019-03-04T01:48:03.230Z,1.1
2019-03-04T01:49:03.630Z,1.1
2019-03-04T01:50:03.374Z,1.1
2019-03-04T01:51:03.535Z,0
2019-03-04T01:52:03.492Z,1.1
2019-03-04T01:53:03.430Z,1.1
2019-03-04T01:54:03.321Z,2.5
2019-03-04T01:55:03.346Z,2.5
2019-03-04T01:56:02.995Z,2.5
2019-03-04T01:57:03.537Z,1.1
2019-03-04T01:58:03.139Z,1.1
2019-03-04T01:59:03.185Z,1.1
2019-03-04T02:00:03.318Z,0
2019-03-04T02:01:03.129Z,0
2019-03-04T02:02:03.234Z,0
2019-03-04T02:03:03.130Z,1.1
2019-03-04T02:04:02.855Z,1.1
2019-03-04T02:05:03.097Z,0
2019-03-04T02:06:03.029Z,0
2019-03-04T02:07:02.762Z,0
2019-03-04T02:08:03.099Z,2.5
2019-03-04T02:09:04.006Z,1.1
2019-03-04T02:10:03.248Z,0
2019-03-04T02:11:02.982Z,0
2019-03-04T02:12:03.338Z,0
2019-03-04T02:13:03.922Z,0
2019-03-04T02:14:03.873Z,0
2019-03-04T02:15:03.047Z,2.5
2019-03-04T02:16:03.623Z,2.5
2019-03-04T02:17:03.989Z,1.1
2019-03-04T02:18:03.910Z,2.5
2019-03-04T02:19:03.910Z,0
2019-03-04T02:20:03.737Z,0
2019-03-04T02:21:03.598Z,2.5
2019-03-04T02:22:03.673Z,1.1
2019-03-04T02:23:03.893Z,1.1
2019-03-04T02:24:03.751Z,0
2019-03-04T02:25:03.877Z,0
2019-03-04T02:26:03.450Z,0
2019-03-04T02:27:03.374Z,0
2019-03-04T02:28:03.425Z,0
2019-03-04T02:29:03.392Z,0
2019-03-04T02:30:03.293Z,0
2019-03-04T02:31:03.902Z,0
2019-03-04T02:32:03.527Z,0
2019-03-04T02:33:03.225Z,0
2019-03-04T02:34:03.366Z,0
2019-03-04T02:35:03.562Z,0
2019-03-04T02:36:03.523Z,0
2019-03-04T02:37:03.147Z,0
2019-03-04T02:38:03.410Z,0
2019-03-04T02:39:03.367Z,1.1
2019-03-04T02:40:03.434Z,1.1
2019-03-04T02:41:03.255Z,1.1
2019-03-04T02:42:03.190Z,1.1
2019-03-04T02:43:03.001Z,1.1
2019-03-04T02:44:02.823Z,1.1
2019-03-04T02:45:03.867Z,0
2019-03-04T02:46:03.193Z,0
2019-03-04T02:47:03.075Z,0
2019-03-04T02:48:03.078Z,0
2019-03-04T02:49:03.292Z,0
2019-03-04T02:50:04.144Z,0
2019-03-04T02:51:03.401Z,0
2019-03-04T02:52:03.086Z,0
2019-03-04T02:53:02.904Z,0
2019-03-04T02:54:04.389Z,0
2019-03-04T02:55:02.918Z,0
2019-03-04T02:56:03.976Z,0
2019-03-04T02:57:03.866Z,0
2019-03-04T02:58:03.825Z,0
2019-03-04T02:59:03.532Z,0
2019-03-04T03:00:03.796Z,0
2019-03-04T03:01:03.517Z,0
2019-03-04T03:02:03.791Z,0
2019-03-04T03:03:03.681Z,0
2019-03-04T03:04:03.623Z,0
2019-03-04T03:05:03.607Z,0
2019-03-04T03:06:03.451Z,0
2019-03-04T03:07:03.199Z,0
2019-03-04T03:08:03.158Z,0
2019-03-04T03:09:03.201Z,0
2019-03-04T03:10:03.187Z,0
2019-03-04T03:11:03.473Z,0
2019-03-04T03:12:03.334Z,0
2019-03-04T03:13:03.649Z,0
2019-03-04T03:14:03.457Z,0
2019-03-04T03:15:03.674Z,0
2019-03-04T03:16:03.481Z,0
2019-03-04T03:17:03.328Z,0
2019-03-04T03:18:03.467Z,0
2019-03-04T03:19:03.323Z,0
2019-03-04T03:20:03.348Z,0
2019-03-04T03:21:02.804Z,0
2019-03-04T03:22:03.108Z,0
2019-03-04T03:23:03.762Z,0
2019-03-04T03:24:03.049Z,0
2019-03-04T03:25:04.124Z,0
2019-03-04T03:26:03.135Z,0
2019-03-04T03:27:03.065Z,0
2019-03-04T03:28:02.898Z,0
2019-03-04T03:29:03.102Z,0
2019-03-04T03:30:03.148Z,1.1
2019-03-04T03:31:03.103Z,0
2019-03-04T03:32:03.832Z,0
2019-03-04T03:33:03.273Z,0
2019-03-04T03:34:03.762Z,0
2019-03-04T03:35:09.471Z,0
2019-03-04T03:36:03.843Z,0
2019-03-04T03:37:03.418Z,0
2019-03-04T03:38:03.638Z,0
2019-03-04T03:39:03.964Z,0
2019-03-04T03:40:03.663Z,0
2019-03-04T03:41:03.639Z,0
2019-03-04T03:42:03.508Z,1.1
2019-03-04T03:43:03.436Z,0
2019-03-04T03:44:03.245Z,0
2019-03-04T03:45:03.500Z,1.1
2019-03-04T03:46:03.433Z,0
2019-03-04T03:47:03.098Z,0
2019-03-04T03:48:03.531Z,0
2019-03-04T03:49:03.048Z,0
2019-03-04T03:50:03.404Z,0
2019-03-04T03:51:03.996Z,0
2019-03-04T03:52:03.208Z,0
2019-03-04T03:53:03.083Z,0
2019-03-04T03:54:03.123Z,0
2019-03-04T03:55:03.060Z,0
2019-03-04T03:56:03.363Z,0
2019-03-04T03:57:03.269Z,0
2019-03-04T03:58:02.946Z,0
2019-03-04T03:59:02.748Z,0
2019-03-04T04:00:03.189Z,0
2019-03-04T04:01:03.207Z,0
2019-03-04T04:02:03.278Z,0
2019-03-04T04:03:03.948Z,0
2019-03-04T04:04:03.016Z,0
2019-03-04T04:05:03.945Z,0
2019-03-04T04:06:03.800Z,0
2019-03-04T04:07:03.963Z,0
2019-03-04T04:08:03.898Z,0
2019-03-04T04:09:04.021Z,0
2019-03-04T04:10:02.900Z,0
2019-03-04T04:11:03.884Z,0
2019-03-04T04:12:03.882Z,0
2019-03-04T04:13:03.678Z,0
2019-03-04T04:14:03.632Z,0
2019-03-04T04:15:03.786Z,0
2019-03-04T04:16:03.600Z,0
2019-03-04T04:17:02.778Z,0
2019-03-04T04:18:03.139Z,0
2019-03-04T04:19:03.428Z,0
2019-03-04T04:20:03.405Z,0
2019-03-04T04:21:03.480Z,0
2019-03-04T04:22:03.387Z,0
2019-03-04T04:23:03.213Z,0
2019-03-04T04:24:03.723Z,0
2019-03-04T04:25:03.309Z,0
2019-03-04T04:26:03.271Z,0
2019-03-04T04:27:03.298Z,0
2019-03-04T04:28:03.482Z,0
2019-03-04T04:29:03.595Z,0
2019-03-04T04:30:02.947Z,0
2019-03-04T04:31:03.323Z,0
2019-03-04T04:32:03.368Z,0
2019-03-04T04:33:03.240Z,0
2019-03-04T04:34:03.132Z,0
2019-03-04T04:35:03.356Z,0
2019-03-04T04:36:02.829Z,0
2019-03-04T04:37:02.942Z,0
2019-03-04T04:38:03.027Z,0
2019-03-04T04:39:03.031Z,0
2019-03-04T04:40:03.210Z,0
2019-03-04T04:41:03.706Z,0
2019-03-04T04:42:03.106Z,0
2019-03-04T04:43:03.782Z,0
2019-03-04T04:44:03.589Z,0
2019-03-04T04:45:03.043Z,0
2019-03-04T04:46:03.124Z,0
2019-03-04T04:47:03.615Z,0
2019-03-04T04:48:03.781Z,0
2019-03-04T04:49:03.626Z,0
2019-03-04T04:50:03.635Z,0
2019-03-04T04:51:03.551Z,0
2019-03-04T04:52:03.614Z,0
2019-03-04T04:53:03.607Z,0
2019-03-04T04:54:03.580Z,0
2019-03-04T04:55:03.759Z,0
2019-03-04T04:56:03.534Z,0
2019-03-04T04:57:03.237Z,0
2019-03-04T04:58:03.538Z,0
2019-03-04T04:59:03.356Z,0
2019-03-04T05:00:03.415Z,0
2019-03-04T05:01:03.117Z,0
2019-03-04T05:02:03.420Z,0
2019-03-04T05:03:03.395Z,0
2019-03-04T05:04:02.994Z,0
2019-03-04T05:05:02.990Z,0
2019-03-04T05:06:03.253Z,0
2019-03-04T05:07:03.308Z,0
2019-03-04T05:08:03.684Z,0
2019-03-04T05:09:03.505Z,0
2019-03-04T05:10:03.261Z,0
2019-03-04T05:11:03.325Z,0
2019-03-04T05:12:03.011Z,0
2019-03-04T05:13:02.700Z,0
2019-03-04T05:14:03.293Z,0
2019-03-04T05:15:03.304Z,0
2019-03-04T05:16:03.110Z,0
2019-03-04T05:17:03.186Z,0
2019-03-04T05:18:03.345Z,0
2019-03-04T05:19:02.998Z,0
2019-03-04T05:20:03.854Z,0
2019-03-04T05:21:03.680Z,0
2019-03-04T05:22:03.062Z,0
2019-03-04T05:23:04.120Z,0
2019-03-04T05:24:02.585Z,0
2019-03-04T05:25:04.427Z,0
2019-03-04T05:26:03.694Z,0
2019-03-04T05:27:02.913Z,0
2019-03-04T05:28:03.491Z,0
2019-03-04T05:29:03.577Z,0
2019-03-04T05:30:03.208Z,0
2019-03-04T05:31:03.765Z,0
2019-03-04T05:32:03.253Z,0
2019-03-04T05:33:03.451Z,0
2019-03-04T05:34:03.481Z,0
2019-03-04T05:35:03.487Z,0
2019-03-04T05:36:03.475Z,0
2019-03-04T05:37:03.106Z,0
2019-03-04T05:38:03.478Z,0
2019-03-04T05:39:02.985Z,0
2019-03-04T05:40:03.153Z,0
2019-03-04T05:41:02.878Z,0
2019-03-04T05:42:04.072Z,0
2019-03-04T05:43:02.975Z,0
2019-03-04T05:44:02.954Z,0
2019-03-04T05:45:03.180Z,0
2019-03-04T05:46:03.757Z,0
2019-03-04T05:47:02.954Z,0
2019-03-04T05:48:03.955Z,0
2019-03-04T05:49:03.721Z,0
2019-03-04T05:50:03.535Z,0
2019-03-04T05:51:03.399Z,0
2019-03-04T05:52:03.378Z,0
2019-03-04T05:53:03.705Z,0
2019-03-04T05:54:03.017Z,0
2019-03-04T05:55:03.681Z,0
2019-03-04T05:56:03.083Z,0
2019-03-04T05:57:03.559Z,0
2019-03-04T05:58:03.438Z,0
2019-03-04T05:59:03.228Z,0
2019-03-04T06:00:03.446Z,0
2019-03-04T06:01:03.462Z,0
2019-03-04T06:02:03.520Z,0
2019-03-04T06:03:03.422Z,0
2019-03-04T06:04:03.476Z,0
2019-03-04T06:05:03.303Z,0
2019-03-04T06:06:03.257Z,0
2019-03-04T06:07:03.259Z,0
2019-03-04T06:08:03.150Z,0
2019-03-04T06:09:03.111Z,0
2019-03-04T06:10:03.404Z,0
2019-03-04T06:11:03.192Z,0
2019-03-04T06:12:02.977Z,0
2019-03-04T06:13:02.743Z,0
2019-03-04T06:14:03.580Z,0
2019-03-04T06:15:03.251Z,0
2019-03-04T06:16:03.370Z,0
2019-03-04T06:17:03.071Z,0
2019-03-04T06:18:02.915Z,0
2019-03-04T06:19:03.374Z,0
2019-03-04T06:20:02.741Z,0
2019-03-04T06:21:02.938Z,0
2019-03-04T06:22:03.864Z,1.1
2019-03-04T06:23:03.262Z,0
2019-03-04T06:24:03.873Z,0
2019-03-04T06:25:03.325Z,0
2019-03-04T06:26:03.820Z,0
2019-03-04T06:27:02.898Z,0
2019-03-04T06:28:03.839Z,0
2019-03-04T06:29:02.966Z,0
2019-03-04T06:30:03.890Z,0
2019-03-04T06:31:03.826Z,0
2019-03-04T06:32:02.990Z,0
2019-03-04T06:33:02.846Z,0
2019-03-04T06:34:03.534Z,0
2019-03-04T06:35:03.716Z,0
2019-03-04T06:36:03.660Z,0
2019-03-04T06:37:03.530Z,1.1
2019-03-04T06:38:03.818Z,0
2019-03-04T06:39:03.480Z,0
2019-03-04T06:40:03.788Z,0
2019-03-04T06:41:03.406Z,0
2019-03-04T06:42:03.490Z,0
2019-03-04T06:43:03.027Z,0
2019-03-04T06:44:03.551Z,0
2019-03-04T06:45:03.619Z,0
2019-03-04T06:46:03.044Z,0
2019-03-04T06:47:03.300Z,0
2019-03-04T06:48:03.475Z,1.1
2019-03-04T06:49:03.414Z,0
2019-03-04T06:50:03.288Z,0
2019-03-04T06:51:03.209Z,0
2019-03-04T06:52:02.934Z,0
2019-03-04T06:53:03.411Z,0
2019-03-04T06:54:03.377Z,0
2019-03-04T06:55:03.561Z,1.1
2019-03-04T06:56:03.256Z,1.1
2019-03-04T06:57:03.326Z,0
2019-03-04T06:58:03.865Z,0
2019-03-04T06:59:03.069Z,0
2019-03-04T07:00:03.044Z,0
2019-03-04T07:01:03.017Z,0
2019-03-04T07:02:02.933Z,0
2019-03-04T07:03:02.856Z,0
2019-03-04T07:04:03.084Z,0
2019-03-04T07:05:03.381Z,0
2019-03-04T07:06:02.846Z,0
2019-03-04T07:07:02.975Z,0
2019-03-04T07:08:02.929Z,0
2019-03-04T07:09:03.680Z,0
2019-03-04T07:10:04.015Z,0
2019-03-04T07:11:02.975Z,0
2019-03-04T07:12:03.156Z,0
2019-03-04T07:13:03.367Z,0
2019-03-04T07:14:03.217Z,0
2019-03-04T07:15:04.027Z,0
2019-03-04T07:16:03.495Z,0
2019-03-04T07:17:03.044Z,0
2019-03-04T07:18:03.382Z,0
2019-03-04T07:19:03.810Z,0
2019-03-04T07:20:03.192Z,0
2019-03-04T07:21:03.815Z,1.1
2019-03-04T07:22:03.678Z,1.1
2019-03-04T07:23:03.909Z,1.1
2019-03-04T07:24:03.873Z,1.1
2019-03-04T07:25:03.550Z,2.5
2019-03-04T07:26:03.627Z,2.5
2019-03-04T07:27:03.921Z,1.1
2019-03-04T07:28:03.673Z,1.1
2019-03-04T07:29:03.829Z,2.5
2019-03-04T07:30:03.508Z,1.1
2019-03-04T07:31:03.740Z,0
2019-03-04T07:32:03.541Z,0
2019-03-04T07:33:04.016Z,0
2019-03-04T07:34:03.380Z,1.1
2019-03-04T07:35:03.510Z,0
2019-03-04T07:36:03.425Z,1.1
2019-03-04T07:37:03.347Z,0
2019-03-04T07:38:03.471Z,0
2019-03-04T07:39:03.202Z,0
2019-03-04T07:40:03.278Z,1.1
2019-03-04T07:41:02.861Z,1.1
2019-03-04T07:42:03.424Z,1.1
2019-03-04T07:43:03.155Z,0
2019-03-04T07:44:03.283Z,0
2019-03-04T07:45:03.193Z,0
2019-03-04T07:46:03.195Z,1.1
2019-03-04T07:47:03.162Z,0
2019-03-04T07:48:03.886Z,0
2019-03-04T07:49:03.069Z,0
2019-03-04T07:50:03.573Z,1.1
2019-03-04T07:51:03.156Z,0
2019-03-04T07:52:03.605Z,0
2019-03-04T07:53:02.945Z,1.1
2019-03-04T07:54:03.926Z,1.1
2019-03-04T07:55:03.009Z,2.5
2019-03-04T07:56:02.672Z,1.1
2019-03-04T07:57:03.960Z,0
2019-03-04T07:58:03.540Z,0
2019-03-04T07:59:04.012Z,0
2019-03-04T08:00:03.769Z,0
2019-03-04T08:01:02.804Z,0
2019-03-04T08:02:02.904Z,0
2019-03-04T08:03:03.658Z,1.1
2019-03-04T08:04:02.886Z,0
2019-03-04T08:05:03.610Z,0
2019-03-04T08:06:03.961Z,1.1
2019-03-04T08:07:03.714Z,0
2019-03-04T08:08:03.629Z,0
2019-03-04T08:09:03.452Z,1.1
2019-03-04T08:10:03.773Z,0
2019-03-04T08:11:03.409Z,0
2019-03-04T08:12:03.334Z,1.1
2019-03-04T08:13:03.783Z,1.1
2019-03-04T08:14:03.663Z,2.5
2019-03-04T08:15:03.484Z,1.1
2019-03-04T08:16:03.998Z,0
2019-03-04T08:17:03.318Z,1.1
2019-03-04T08:18:03.043Z,2.5
2019-03-04T08:19:03.173Z,0
2019-03-04T08:20:03.287Z,0
2019-03-04T08:21:03.212Z,0
2019-03-04T08:22:03.215Z,0
2019-03-04T08:23:03.008Z,0
2019-03-04T08:24:02.928Z,0
2019-03-04T08:25:03.434Z,0
2019-03-04T08:26:03.436Z,0
2019-03-04T08:27:03.156Z,0
2019-03-04T08:28:03.092Z,0
2019-03-04T08:29:02.895Z,0
2019-03-04T08:30:03.107Z,0
2019-03-04T08:31:03.914Z,0
2019-03-04T08:32:03.553Z,0
2019-03-04T08:33:03.032Z,0
2019-03-04T08:34:03.054Z,0
2019-03-04T08:35:02.986Z,0
2019-03-04T08:36:03.209Z,0
2019-03-04T08:37:03.867Z,0
2019-03-04T08:38:03.116Z,0
2019-03-04T08:39:03.808Z,0
2019-03-04T08:40:03.650Z,1.1
2019-03-04T08:41:03.613Z,1.1
2019-03-04T08:42:03.475Z,0
2019-03-04T08:43:03.431Z,0
2019-03-04T08:44:03.390Z,0
2019-03-04T08:45:03.705Z,1.1
2019-03-04T08:46:03.859Z,1.1
2019-03-04T08:47:03.560Z,0
2019-03-04T08:48:03.006Z,0
2019-03-04T08:49:03.690Z,0
2019-03-04T08:50:03.439Z,0
2019-03-04T08:51:03.442Z,0
2019-03-04T08:52:03.359Z,0
2019-03-04T08:53:03.173Z,0
2019-03-04T08:54:02.918Z,0
2019-03-04T08:55:03.208Z,0
2019-03-04T08:56:03.298Z,0
2019-03-04T08:57:04.641Z,2.5
2019-03-04T08:58:02.927Z,3.6
2019-03-04T08:59:03.167Z,1.1
2019-03-04T09:00:03.021Z,0
2019-03-04T09:01:03.935Z,0
2019-03-04T09:02:02.916Z,0
2019-03-04T09:03:03.240Z,0
2019-03-04T09:04:02.666Z,0
2019-03-04T09:05:02.875Z,0
2019-03-04T09:06:03.945Z,0
2019-03-04T09:07:04.431Z,0
2019-03-04T09:08:02.709Z,0
2019-03-04T09:09:03.917Z,1.1
2019-03-04T09:10:03.822Z,1.1
2019-03-04T09:11:03.126Z,0
2019-03-04T09:12:03.740Z,0
2019-03-04T09:13:03.852Z,2.5
2019-03-04T09:14:03.648Z,1.1
2019-03-04T09:15:03.775Z,2.5
2019-03-04T09:16:03.671Z,0
2019-03-04T09:17:03.810Z,6.1
2019-03-04T09:18:03.534Z,3.6
2019-03-04T09:19:03.379Z,1.1
2019-03-04T09:20:03.472Z,0
2019-03-04T09:21:03.283Z,5
2019-03-04T09:22:02.928Z,5
2019-03-04T09:23:03.094Z,6.1
2019-03-04T09:24:03.552Z,8.6
2019-03-04T09:25:03.287Z,8.6
2019-03-04T09:26:02.867Z,6.1
2019-03-04T09:27:03.404Z,6.1
2019-03-04T09:28:03.502Z,6.1
2019-03-04T09:29:03.166Z,5
2019-03-04T09:30:03.113Z,8.6
2019-03-04T09:31:03.813Z,7.2
2019-03-04T09:32:03.101Z,8.6
2019-03-04T09:33:02.956Z,9.7
2019-03-04T09:34:03.059Z,11.2
2019-03-04T09:35:03.283Z,7.2
2019-03-04T09:36:02.802Z,7.2
2019-03-04T09:37:03.775Z,7.2
2019-03-04T09:38:03.343Z,6.1
2019-03-04T09:39:03.444Z,9.7
2019-03-04T09:40:03.366Z,11.2
2019-03-04T09:41:03.376Z,12.2
2019-03-04T09:42:03.168Z,9.7
2019-03-04T09:43:02.795Z,15.8
2019-03-04T09:44:03.159Z,15.8
2019-03-04T09:45:03.171Z,14.8
2019-03-04T09:46:03.956Z,19.4
2019-03-04T09:47:03.889Z,19.4
2019-03-04T09:48:03.196Z,20.9
2019-03-04T09:49:03.944Z,24.5
2019-03-04T09:50:03.783Z,23.4
2019-03-04T09:51:03.824Z,18.4
2019-03-04T09:52:03.669Z,15.8
2019-03-04T09:53:03.476Z,17.3
2019-03-04T09:54:03.813Z,15.8
2019-03-04T09:55:03.680Z,11.2
2019-03-04T09:56:03.777Z,13.3
2019-03-04T09:57:03.273Z,9.7
2019-03-04T09:58:03.778Z,8.6
2019-03-04T09:59:03.536Z,8.6
2019-03-04T10:00:03.846Z,3.6
2019-03-04T10:01:03.199Z,5
2019-03-04T10:02:03.247Z,6.1
2019-03-04T10:03:03.328Z,9.7
2019-03-04T10:04:02.169Z,7.2
2019-03-04T10:05:03.612Z,5
2019-03-04T10:06:03.193Z,5
2019-03-04T10:07:03.135Z,6.1
2019-03-04T10:08:03.769Z,5
2019-03-04T10:09:03.242Z,6.1
2019-03-04T10:10:03.300Z,9.7
2019-03-04T10:11:03.331Z,2.5
2019-03-04T10:12:03.318Z,6.1
2019-03-04T10:13:03.365Z,6.1
2019-03-04T10:14:03.055Z,6.1
2019-03-04T10:15:09.448Z,8.6
2019-03-04T10:16:03.014Z,3.6
2019-03-04T10:17:03.142Z,3.6
2019-03-04T10:18:04.100Z,5
2019-03-04T10:19:02.639Z,5
2019-03-04T10:20:02.797Z,8.6
2019-03-04T10:21:03.721Z,11.2
2019-03-04T10:22:03.459Z,9.7
2019-03-04T10:23:04.030Z,11.2
2019-03-04T10:24:03.759Z,11.2
2019-03-04T10:25:03.731Z,12.2
2019-03-04T10:26:03.095Z,12.2
2019-03-04T10:27:03.920Z,7.2
2019-03-04T10:28:03.801Z,9.7
2019-03-04T10:29:03.695Z,9.7
2019-03-04T10:30:03.768Z,8.6
2019-03-04T10:31:03.632Z,9.7
2019-03-04T10:32:03.570Z,7.2
2019-03-04T10:33:03.706Z,7.2
2019-03-04T10:34:03.612Z,8.6
2019-03-04T10:35:03.653Z,19.4
2019-03-04T10:36:03.398Z,19.4
2019-03-04T10:37:03.557Z,18.4
2019-03-04T10:38:03.174Z,18.4
2019-03-04T10:39:03.328Z,20.9
2019-03-04T10:40:03.351Z,19.4
2019-03-04T10:41:03.289Z,17.3
2019-03-04T10:42:03.302Z,28.1
2019-03-04T10:43:03.423Z,20.9
2019-03-04T10:44:02.910Z,25.6
2019-03-04T10:45:03.959Z,29.5
2019-03-04T10:46:03.134Z,34.2
2019-03-04T10:47:03.875Z,27
2019-03-04T10:48:03.887Z,27
2019-03-04T10:49:03.576Z,27
2019-03-04T10:50:03.100Z,23.4
2019-03-04T10:51:03.229Z,27
2019-03-04T10:52:03.876Z,23.4
2019-03-04T10:53:03.866Z,28.1
2019-03-04T10:54:03.858Z,39.2
2019-03-04T10:55:03.679Z,30.6
2019-03-04T10:56:03.494Z,30.6
2019-03-04T10:57:03.964Z,27
2019-03-04T10:58:03.644Z,29.5
2019-03-04T10:59:03.474Z,19.4
2019-03-04T11:00:03.584Z,22
2019-03-04T11:01:03.715Z,29.5
2019-03-04T11:02:03.480Z,29.5
2019-03-04T11:03:03.429Z,29.5
2019-03-04T11:04:03.490Z,29.5
2019-03-04T11:05:03.475Z,29.5
2019-03-04T11:06:03.271Z,29.5
2019-03-04T11:07:03.127Z,29.5
2019-03-04T11:08:03.229Z,29.5
2019-03-04T11:09:03.813Z,36.7
2019-03-04T11:10:03.156Z,39.2
2019-03-04T11:11:03.790Z,30.6
2019-03-04T11:12:03.034Z,31.7
2019-03-04T11:13:03.113Z,31.7
2019-03-04T11:14:03.647Z,33.1
2019-03-04T11:15:03.471Z,29.5
2019-03-04T11:16:02.678Z,27
2019-03-04T11:17:03.643Z,33.1
2019-03-04T11:18:03.524Z,25.6
2019-03-04T11:19:03.588Z,23.4
2019-03-04T11:20:03.613Z,23.4
2019-03-04T11:21:03.630Z,29.5
2019-03-04T11:22:03.434Z,25.6
2019-03-04T11:23:03.714Z,22
2019-03-04T11:24:03.414Z,23.4
2019-03-04T11:25:03.720Z,23.4
2019-03-04T11:26:02.959Z,35.6
2019-03-04T11:27:03.228Z,30.6
2019-03-04T11:28:03.355Z,33.1
2019-03-04T11:29:03.203Z,31.7
2019-03-04T11:30:04.012Z,30.6
2019-03-04T11:31:03.140Z,22
2019-03-04T11:32:03.167Z,25.6
2019-03-04T11:33:03.065Z,24.5
2019-03-04T11:34:02.987Z,25.6
2019-03-04T11:35:03.094Z,24.5
2019-03-04T11:36:03.190Z,25.6
2019-03-04T11:37:03.894Z,28.1
2019-03-04T11:38:03.031Z,29.5
2019-03-04T11:39:03.843Z,29.5
2019-03-04T11:40:03.930Z,27
2019-03-04T11:41:03.729Z,25.6
2019-03-04T11:42:03.639Z,23.4
2019-03-04T11:43:03.633Z,33.1
2019-03-04T11:44:05.230Z,31.7
2019-03-04T11:45:03.860Z,33.1
2019-03-04T11:46:03.601Z,28.1
2019-03-04T11:47:03.241Z,22
2019-03-04T11:48:03.600Z,31.7
2019-03-04T11:49:03.700Z,27
2019-03-04T11:50:03.583Z,27
2019-03-04T11:51:03.490Z,25.6
2019-03-04T11:52:03.530Z,24.5
2019-03-04T11:53:03.772Z,20.9
2019-03-04T11:54:03.430Z,23.4
2019-03-04T11:55:03.212Z,27
2019-03-04T11:56:03.265Z,28.1
2019-03-04T11:57:03.194Z,31.7
2019-03-04T11:58:03.512Z,27
2019-03-04T11:59:03.038Z,23.4
2019-03-04T12:00:03.477Z,25.6
2019-03-04T12:01:03.168Z,27
2019-03-04T12:02:03.461Z,29.5
2019-03-04T12:03:03.271Z,27
2019-03-04T12:04:03.126Z,29.5
2019-03-04T12:05:03.209Z,22
2019-03-04T12:06:03.251Z,22
2019-03-04T12:07:03.196Z,30.6
2019-03-04T12:08:02.989Z,29.5
2019-03-04T12:09:03.105Z,28.1
2019-03-04T12:10:03.074Z,27
2019-03-04T12:11:03.264Z,24.5
2019-03-04T12:12:02.950Z,22
2019-03-04T12:13:04.083Z,29.5
2019-03-04T12:14:03.690Z,25.6
2019-03-04T12:15:03.474Z,23.4
2019-03-04T12:16:03.909Z,23.4
2019-03-04T12:17:03.809Z,33.1
2019-03-04T12:18:03.449Z,31.7
2019-03-04T12:19:03.728Z,31.7
2019-03-04T12:20:03.965Z,30.6
2019-03-04T12:21:03.548Z,36.7
2019-03-04T12:22:03.129Z,40.3
2019-03-04T12:23:03.412Z,43.9
2019-03-04T12:24:03.784Z,33.1
2019-03-04T12:25:03.468Z,43.9
2019-03-04T12:26:03.496Z,54
2019-03-04T12:27:03.779Z,37.8
2019-03-04T12:28:03.037Z,57.6
2019-03-04T12:29:03.406Z,43.9
2019-03-04T12:30:03.474Z,46.4
2019-03-04T12:31:03.715Z,42.8
2019-03-04T12:32:03.127Z,42.8
2019-03-04T12:33:03.361Z,54
2019-03-04T12:34:03.073Z,51.5
2019-03-04T12:35:03.536Z,51.5
2019-03-04T12:36:03.316Z,33.1
2019-03-04T12:37:03.431Z,33.1
2019-03-04T12:38:03.357Z,45.4
2019-03-04T12:39:03.151Z,39.2
2019-03-04T12:40:03.462Z,30.6
2019-03-04T12:41:03.249Z,30.6
2019-03-04T12:42:03.321Z,40.3
2019-03-04T12:43:02.971Z,46.4
2019-03-04T12:44:03.271Z,36.7
2019-03-04T12:45:03.306Z,37.8
2019-03-04T12:46:02.899Z,49
2019-03-04T12:47:03.877Z,51.5
2019-03-04T12:48:03.329Z,35.6
2019-03-04T12:49:02.954Z,41.8
2019-03-04T12:50:03.651Z,34.2
2019-03-04T12:51:03.915Z,46.4
2019-03-04T12:52:03.686Z,46.4
2019-03-04T12:53:03.459Z,43.9
2019-03-04T12:54:03.820Z,41.8
2019-03-04T12:55:03.803Z,55.1
2019-03-04T12:56:03.069Z,57.6
2019-03-04T12:57:03.652Z,47.9
2019-03-04T12:58:03.283Z,52.6
2019-03-04T12:59:03.337Z,51.5
2019-03-04T13:00:03.578Z,34.2
2019-03-04T13:01:03.649Z,43.9
2019-03-04T13:02:03.105Z,43.9
2019-03-04T13:03:03.170Z,43.9
2019-03-04T13:04:03.468Z,43.9
2019-03-04T13:05:03.481Z,43.9
2019-03-04T13:06:03.456Z,43.9
2019-03-04T13:07:03.075Z,43.9
2019-03-04T13:08:03.052Z,43.9
2019-03-04T13:09:03.188Z,34.2
2019-03-04T13:10:03.698Z,36.7
2019-03-04T13:11:02.998Z,52.6
2019-03-04T13:12:03.066Z,46.4
2019-03-04T13:13:03.684Z,47.9
2019-03-04T13:14:03.046Z,50
2019-03-04T13:15:03.752Z,45.4
2019-03-04T13:16:03.135Z,34.2
2019-03-04T13:17:03.789Z,40.3
2019-03-04T13:18:03.586Z,52.6
2019-03-04T13:19:03.844Z,51.5
2019-03-04T13:20:03.691Z,46.4
2019-03-04T13:21:03.826Z,40.3
2019-03-04T13:22:09.330Z,36.7
2019-03-04T13:23:03.670Z,33.1
2019-03-04T13:24:03.674Z,34.2
2019-03-04T13:25:03.629Z,31.7
2019-03-04T13:26:03.569Z,29.5
2019-03-04T13:27:03.504Z,36.7
2019-03-04T13:28:09.057Z,36.7
2019-03-04T13:29:05.300Z,46.4
2019-03-04T13:30:03.523Z,45.4
2019-03-04T13:31:03.066Z,37.8
2019-03-04T13:32:03.249Z,36.7
2019-03-04T13:33:03.369Z,40.3
2019-03-04T13:34:03.197Z,30.6
2019-03-04T13:35:02.985Z,37.8
2019-03-04T13:36:03.669Z,43.9
2019-03-04T13:37:03.642Z,50
2019-03-04T13:38:03.575Z,41.8
2019-03-04T13:39:03.104Z,28.1
2019-03-04T13:40:03.304Z,34.2
2019-03-04T13:41:03.255Z,36.7
2019-03-04T13:42:03.049Z,42.8
2019-03-04T13:43:03.065Z,36.7
2019-03-04T13:44:03.566Z,34.2
2019-03-04T13:45:03.910Z,35.6
2019-03-04T13:46:03.572Z,34.2
2019-03-04T13:47:03.717Z,33.1
2019-03-04T13:48:03.625Z,33.1
2019-03-04T13:49:03.650Z,36.7
2019-03-04T13:50:03.889Z,30.6
2019-03-04T13:51:03.508Z,29.5
2019-03-04T13:52:03.581Z,31.7
2019-03-04T13:53:03.480Z,31.7
2019-03-04T13:54:03.538Z,28.1
2019-03-04T13:55:03.565Z,24.5
2019-03-04T13:56:03.364Z,34.2
2019-03-04T13:57:03.258Z,25.6
2019-03-04T13:58:02.254Z,23.4
2019-03-04T13:59:03.150Z,33.1
2019-03-04T14:00:03.295Z,29.5
2019-03-04T14:01:03.151Z,22
2019-03-04T14:02:03.956Z,25.6
2019-03-04T14:03:03.208Z,25.6
2019-03-04T14:04:03.107Z,30.6
2019-03-04T14:05:03.450Z,25.6
2019-03-04T14:06:03.109Z,19.4
2019-03-04T14:07:02.997Z,25.6